This is the latest recevied weather packets stored in our database for station/object AE5HO. If no packets are shown the sender has not sent any weather packets the latest 10 day(s).
| Time | Temp. | Humidity | Pressure | Rain* | Wind** | Luminosity | Snow |
|---|---|---|---|---|---|---|---|
| 1787940465 | 36.11° C | 48% | 1018.1 hPa | 0 mm | - | 179 W/m² | - |
| 1787940160 | 37.22° C | 46% | 1018.4 hPa | 0 mm | - | 264 W/m² | - |
| 1787939859 | 36.67° C | 44% | 1018.3 hPa | 0 mm | - | 66 W/m² | - |
| 1787939554 | 36.67° C | 45% | 1018.3 hPa | 0 mm | - | 98 W/m² | - |
| 1787939249 | 36.67° C | 45% | 1018.5 hPa | 0 mm | - | 62 W/m² | - |
| 1787938944 | 36.67° C | 44% | 1018.5 hPa | 0 mm | - | 62 W/m² | - |
| 1787938643 | 36.67° C | 46% | 1018.6 hPa | 0 mm | - | 146 W/m² | - |
| 1787938339 | 36.67° C | 47% | 1018.8 hPa | 0 mm | - | 206 W/m² | - |
| 1787938034 | 36.67° C | 47% | 1018.9 hPa | 0 mm | - | 70 W/m² | - |
| 1787937730 | 36.67° C | 45% | 1018.9 hPa | 0 mm | - | 70 W/m² | - |
| 1787937426 | 36.67° C | 45% | 1018.9 hPa | 0 mm | - | 191 W/m² | - |
| 1787937122 | 36.67° C | 45% | 1018.6 hPa | 0 mm | - | 438 W/m² | - |
| 1787936821 | 36.11° C | 49% | 1018.8 hPa | 0 mm | - | 575 W/m² | - |
| 1787936517 | 35.56° C | 49% | 1019.2 hPa | 0 mm | - | 606 W/m² | - |
| 1787936215 | 36.67° C | 46% | 1018.9 hPa | 0 mm | - | 614 W/m² | - |
| 1787935911 | 36.11° C | 49% | 1018.9 hPa | 0 mm | - | 531 W/m² | - |
| 1787935606 | 35.56° C | 51% | 1019.2 hPa | 0 mm | - | 596 W/m² | - |
| 1787935303 | 36.11° C | 49% | 1019.2 hPa | 0 mm | - | 568 W/m² | - |
| 1787935003 | 36.11° C | 49% | 1018.9 hPa | 0 mm | - | 606 W/m² | - |
| 1787934698 | 35.56° C | 51% | 1018.7 hPa | 0 mm | - | 504 W/m² | - |
| 1787934397 | 35.56° C | 51% | 1019.2 hPa | 0 mm | - | 628 W/m² | - |
| 1787934097 | 35.56° C | 52% | 1019.1 hPa | 0 mm | - | 593 W/m² | - |
| 1787933796 | 35.56° C | 53% | 1019.3 hPa | 0 mm | - | 613 W/m² | - |
| 1787933492 | 35° C | 54% | 1019.1 hPa | 0 mm | - | 590 W/m² | - |
| 1787933186 | 35.56° C | 52% | 1018.9 hPa | 0 mm | - | 582 W/m² | - |
* Rain latest hour (hover to see other rain measurements)
** Current wind speed in m/s (hover to see current wind gust speed)